createdAt,value
2019-03-27T00:02:57.888Z,96.51
2019-03-27T00:05:26.465Z,96.59
2019-03-27T00:07:55.029Z,96.50
2019-03-27T00:10:23.940Z,96.74
2019-03-27T00:12:52.505Z,96.89
2019-03-27T00:15:21.085Z,96.86
2019-03-27T00:17:49.648Z,96.62
2019-03-27T00:20:18.299Z,96.73
2019-03-27T00:22:47.190Z,96.73
2019-03-27T00:25:15.747Z,97.08
2019-03-27T00:27:44.325Z,97.30
2019-03-27T00:30:14.702Z,97.26
2019-03-27T00:32:46.351Z,97.29
2019-03-27T00:35:15.186Z,97.44
2019-03-27T00:37:43.776Z,97.70
2019-03-27T00:40:13.169Z,97.81
2019-03-27T00:42:44.615Z,97.94
2019-03-27T00:45:26.400Z,98.08
2019-03-27T00:47:46.996Z,98.20
2019-03-27T00:50:15.623Z,98.28
2019-03-27T00:52:44.577Z,98.30
2019-03-27T00:55:16.574Z,98.19
2019-03-27T00:57:45.145Z,98.03
2019-03-27T01:00:45.806Z,97.95
2019-03-27T01:03:14.381Z,98.09
2019-03-27T01:05:44.488Z,98.33
2019-03-27T01:08:14.610Z,98.51
2019-03-27T01:10:45.915Z,98.79
2019-03-27T01:13:14.498Z,99.07
2019-03-27T01:15:44.589Z,99.21
2019-03-27T01:18:15.997Z,99.34
2019-03-27T01:20:44.562Z,99.34
2019-03-27T01:23:16.247Z,99.31
2019-03-27T01:25:44.799Z,99.27
2019-03-27T01:28:13.375Z,99.21
2019-03-27T01:30:41.936Z,99.00
2019-03-27T01:33:12.188Z,98.71
2019-03-27T01:35:43.702Z,98.47
2019-03-27T01:38:13.792Z,98.31
2019-03-27T01:40:45.367Z,98.19
2019-03-27T01:43:13.943Z,98.28
2019-03-27T01:45:52.875Z,98.22
2019-03-27T01:48:15.632Z,98.11
2019-03-27T01:50:44.185Z,98.25
2019-03-27T01:53:12.765Z,98.29
2019-03-27T01:55:43.065Z,98.28
2019-03-27T01:58:11.641Z,98.29
2019-03-27T02:00:41.903Z,98.43
2019-03-27T02:03:12.907Z,98.57
2019-03-27T02:05:41.520Z,98.65
2019-03-27T02:08:11.330Z,98.57
2019-03-27T02:10:39.836Z,98.00
2019-03-27T02:13:08.415Z,98.00
2019-03-27T02:15:36.964Z,98.00
2019-03-27T02:18:05.542Z,97.94
2019-03-27T02:20:34.256Z,98.09
2019-03-27T02:23:02.837Z,97.93
2019-03-27T02:25:31.711Z,97.58
2019-03-27T02:28:00.598Z,97.21
2019-03-27T02:30:29.155Z,97.14
2019-03-27T02:32:57.731Z,97.24
2019-03-27T02:35:26.282Z,96.97
2019-03-27T02:37:54.863Z,96.61
2019-03-27T02:40:23.507Z,96.98
2019-03-27T02:42:52.081Z,97.37
2019-03-27T02:45:20.636Z,97.39
2019-03-27T02:47:49.188Z,97.39
2019-03-27T02:50:17.764Z,97.56
2019-03-27T02:52:46.330Z,97.64
2019-03-27T02:55:15.203Z,97.57
2019-03-27T02:57:43.764Z,97.73
2019-03-27T03:00:13.738Z,97.73
2019-03-27T03:02:43.757Z,97.74
2019-03-27T03:05:15.411Z,97.23
2019-03-27T03:07:44.311Z,97.23
2019-03-27T03:10:13.339Z,96.98
2019-03-27T03:12:44.958Z,96.78
2019-03-27T03:15:17.025Z,97.33
2019-03-27T03:17:45.585Z,97.33
2019-03-27T03:20:14.293Z,97.07
2019-03-27T03:22:43.271Z,97.07
2019-03-27T03:25:13.849Z,96.39
2019-03-27T03:27:45.339Z,96.39
2019-03-27T03:30:14.068Z,96.26
2019-03-27T03:32:42.956Z,96.45
2019-03-27T03:35:11.982Z,96.63
2019-03-27T03:37:42.809Z,96.62
2019-03-27T03:40:13.917Z,96.49
2019-03-27T03:42:45.804Z,96.66
2019-03-27T03:45:14.735Z,96.70
2019-03-27T03:47:43.292Z,96.87
2019-03-27T03:50:32.656Z,97.14
2019-03-27T03:53:01.981Z,97.42
2019-03-27T03:55:32.071Z,97.63
2019-03-27T03:58:01.676Z,97.46
2019-03-27T04:00:30.895Z,97.46
2019-03-27T04:03:00.684Z,97.50
2019-03-27T04:05:29.259Z,97.33
2019-03-27T04:07:57.817Z,97.24
2019-03-27T04:10:26.405Z,97.46
2019-03-27T04:12:54.956Z,98.05
2019-03-27T04:15:23.592Z,98.30
2019-03-27T04:17:52.152Z,98.42
2019-03-27T04:20:20.730Z,98.33
2019-03-27T04:22:49.739Z,98.36
2019-03-27T04:25:19.960Z,98.36
2019-03-27T04:27:48.890Z,98.04
2019-03-27T04:30:17.539Z,98.04
2019-03-27T04:32:46.255Z,97.72
2019-03-27T04:35:14.838Z,97.54
2019-03-27T04:37:43.717Z,97.46
2019-03-27T04:40:13.869Z,97.61
2019-03-27T04:42:45.353Z,97.14
2019-03-27T04:45:15.601Z,96.31
2019-03-27T04:47:44.474Z,96.31
2019-03-27T04:50:14.672Z,95.98
2019-03-27T04:52:46.096Z,95.81
2019-03-27T04:55:14.677Z,96.19
2019-03-27T04:57:46.014Z,95.92
2019-03-27T05:00:14.947Z,95.92
2019-03-27T05:02:43.570Z,96.18
2019-03-27T05:05:13.742Z,96.22
2019-03-27T05:07:43.818Z,96.22
2019-03-27T05:10:15.924Z,96.03
2019-03-27T05:12:44.491Z,96.62
2019-03-27T05:15:14.679Z,96.89
2019-03-27T05:17:46.704Z,96.95
2019-03-27T05:20:15.383Z,97.00
2019-03-27T05:22:43.951Z,96.56
2019-03-27T05:25:15.447Z,96.53
2019-03-27T05:27:44.454Z,96.55
2019-03-27T05:30:16.070Z,96.55
2019-03-27T05:32:44.660Z,96.55
2019-03-27T05:35:16.270Z,96.13
2019-03-27T05:37:45.182Z,96.13
2019-03-27T05:40:13.813Z,95.65
2019-03-27T05:42:43.905Z,94.58
2019-03-27T05:45:15.696Z,94.67
2019-03-27T05:47:44.276Z,95.15
2019-03-27T05:50:13.592Z,95.15
2019-03-27T05:52:43.694Z,95.23
2019-03-27T05:55:13.772Z,95.23
2019-03-27T05:57:43.862Z,94.83
2019-03-27T06:00:17.186Z,94.41
2019-03-27T06:02:45.778Z,94.41
2019-03-27T06:05:14.727Z,94.32
2019-03-27T06:07:46.451Z,94.03
2019-03-27T06:10:16.474Z,94.11
2019-03-27T06:12:45.215Z,94.17
2019-03-27T06:15:13.985Z,94.77
2019-03-27T06:17:43.814Z,95.40
2019-03-27T06:20:13.948Z,95.67
2019-03-27T06:22:45.532Z,95.91
2019-03-27T06:25:14.071Z,95.89
2019-03-27T06:27:45.651Z,96.09
2019-03-27T06:30:14.467Z,96.49
2019-03-27T06:32:44.622Z,96.49
2019-03-27T06:35:15.916Z,96.33
2019-03-27T06:37:44.555Z,96.36
2019-03-27T06:40:14.814Z,96.39
2019-03-27T06:42:43.438Z,96.12
2019-03-27T06:45:12.270Z,95.92
2019-03-27T06:47:43.636Z,95.52
2019-03-27T06:50:13.774Z,95.34
2019-03-27T06:52:44.175Z,95.00
2019-03-27T06:55:12.957Z,95.20
2019-03-27T06:57:41.605Z,95.59
2019-03-27T07:00:14.557Z,95.91
2019-03-27T07:02:45.019Z,96.05
2019-03-27T07:05:13.714Z,96.50
2019-03-27T07:07:44.255Z,96.60
2019-03-27T07:10:13.242Z,96.32
2019-03-27T07:12:44.564Z,96.37
2019-03-27T07:15:14.921Z,96.50
2019-03-27T07:18:05.550Z,96.69
2019-03-27T07:20:34.161Z,96.74
2019-03-27T07:23:02.813Z,96.78
2019-03-27T07:25:31.375Z,97.01
2019-03-27T07:27:59.958Z,97.40
2019-03-27T07:30:28.906Z,97.34
2019-03-27T07:32:57.518Z,97.23
2019-03-27T07:35:26.078Z,97.41
2019-03-27T07:37:54.669Z,97.19
2019-03-27T07:40:23.243Z,96.01
2019-03-27T07:42:51.820Z,95.19
2019-03-27T07:45:20.464Z,94.58
2019-03-27T07:47:49.034Z,93.74
2019-03-27T07:50:17.684Z,93.04
2019-03-27T07:52:46.399Z,92.96
2019-03-27T07:55:19.540Z,91.55
2019-03-27T07:57:45.830Z,91.19
2019-03-27T08:00:17.494Z,90.79
2019-03-27T08:02:46.174Z,91.19
2019-03-27T08:05:14.861Z,90.49
2019-03-27T08:07:43.415Z,89.77
2019-03-27T08:10:12.355Z,89.48
2019-03-27T08:12:41.646Z,88.32
2019-03-27T08:15:11.702Z,87.94
2019-03-27T08:17:40.256Z,87.47
2019-03-27T08:20:11.756Z,87.16
2019-03-27T08:22:40.798Z,87.00
2019-03-27T08:25:09.776Z,87.46
2019-03-27T08:27:38.385Z,86.40
2019-03-27T08:30:16.540Z,86.47
2019-03-27T08:32:45.498Z,86.32
2019-03-27T08:35:14.739Z,86.22
2019-03-27T08:37:43.584Z,86.53
2019-03-27T08:40:15.559Z,84.60
2019-03-27T08:42:44.187Z,81.93
2019-03-27T08:45:13.732Z,82.12
2019-03-27T08:47:43.864Z,81.86
2019-03-27T08:50:12.914Z,80.35
2019-03-27T08:52:41.730Z,80.25
2019-03-27T08:55:13.775Z,80.08
2019-03-27T08:57:42.330Z,79.12
2019-03-27T09:00:13.813Z,76.69
2019-03-27T09:02:45.302Z,77.33
2019-03-27T09:05:14.364Z,78.49
2019-03-27T09:07:44.585Z,79.74
2019-03-27T09:10:16.732Z,79.74
2019-03-27T09:12:45.710Z,79.76
2019-03-27T09:15:15.902Z,79.02
2019-03-27T09:17:44.760Z,79.18
2019-03-27T09:20:16.830Z,76.42
2019-03-27T09:22:45.471Z,77.72
2019-03-27T09:25:14.289Z,77.33
2019-03-27T09:27:42.902Z,76.99
2019-03-27T09:30:13.457Z,77.13
2019-03-27T09:32:42.171Z,76.58
2019-03-27T09:35:11.615Z,76.78
2019-03-27T09:37:42.095Z,77.58
2019-03-27T09:40:11.064Z,78.42
2019-03-27T09:42:39.793Z,78.58
2019-03-27T09:45:09.487Z,78.82
2019-03-27T09:47:38.312Z,79.64
2019-03-27T09:50:07.977Z,80.07
2019-03-27T09:52:36.584Z,79.49
2019-03-27T09:55:06.322Z,78.24
2019-03-27T09:57:34.864Z,77.53
2019-03-27T10:00:05.189Z,78.81
2019-03-27T10:02:34.091Z,78.84
2019-03-27T10:05:02.799Z,77.63
2019-03-27T10:07:31.453Z,77.44
2019-03-27T10:10:00.116Z,78.00
2019-03-27T10:12:28.773Z,77.80
2019-03-27T10:14:57.386Z,77.32
2019-03-27T10:17:25.927Z,79.13
2019-03-27T10:20:03.406Z,78.05
2019-03-27T10:22:25.258Z,76.05
2019-03-27T10:24:53.866Z,75.99
2019-03-27T10:27:22.476Z,75.66
2019-03-27T10:29:51.081Z,75.05
2019-03-27T10:32:19.698Z,75.08
2019-03-27T10:34:48.713Z,75.73
2019-03-27T10:37:17.266Z,75.84
2019-03-27T10:39:45.835Z,75.61
2019-03-27T10:42:14.798Z,75.56
2019-03-27T10:44:46.533Z,76.10
2019-03-27T10:47:15.104Z,76.55
2019-03-27T10:49:43.762Z,77.08
2019-03-27T10:52:14.023Z,76.80
2019-03-27T10:54:45.596Z,77.74
2019-03-27T10:57:14.167Z,77.75
2019-03-27T10:59:42.764Z,77.81
2019-03-27T11:02:13.351Z,77.78
2019-03-27T11:04:45.115Z,77.21
2019-03-27T11:07:13.729Z,76.75
2019-03-27T11:09:43.789Z,76.44
2019-03-27T11:12:14.361Z,76.45
2019-03-27T11:14:42.977Z,76.82
2019-03-27T11:17:11.872Z,76.97
2019-03-27T11:19:40.420Z,76.64
2019-03-27T11:22:09.006Z,77.32
2019-03-27T11:24:37.720Z,77.38
2019-03-27T11:27:06.658Z,77.02
2019-03-27T11:29:35.248Z,77.70
2019-03-27T11:32:03.820Z,77.02
2019-03-27T11:34:32.467Z,76.72
2019-03-27T11:37:01.050Z,76.97
2019-03-27T11:39:29.683Z,76.66
2019-03-27T11:42:00.716Z,75.74
2019-03-27T11:44:28.565Z,76.58
2019-03-27T11:46:57.142Z,75.98
2019-03-27T11:49:26.068Z,76.25
2019-03-27T11:51:54.677Z,76.49
2019-03-27T11:54:23.198Z,76.32
2019-03-27T11:56:51.791Z,76.39
2019-03-27T11:59:20.538Z,75.46
2019-03-27T12:01:49.523Z,75.66
2019-03-27T12:04:18.543Z,75.59
2019-03-27T12:06:47.123Z,75.15
2019-03-27T12:09:15.767Z,75.34
2019-03-27T12:11:44.472Z,74.04
2019-03-27T12:14:14.570Z,74.91
2019-03-27T12:16:45.948Z,73.00
2019-03-27T12:19:14.961Z,73.94
2019-03-27T12:21:43.583Z,75.14
2019-03-27T12:24:13.848Z,75.03
2019-03-27T12:26:45.488Z,75.43
2019-03-27T12:29:14.039Z,75.25
2019-03-27T12:31:42.653Z,74.73
2019-03-27T12:34:12.968Z,74.60
2019-03-27T12:36:41.515Z,74.12
2019-03-27T12:39:10.237Z,72.80
2019-03-27T12:41:39.099Z,73.28
2019-03-27T12:44:07.682Z,74.04
2019-03-27T12:46:36.242Z,71.74
2019-03-27T12:49:05.376Z,71.99
2019-03-27T12:51:33.934Z,68.94
2019-03-27T12:54:02.586Z,68.35
2019-03-27T12:56:31.138Z,68.34
2019-03-27T12:58:59.704Z,68.18
2019-03-27T13:01:28.268Z,70.29
2019-03-27T13:03:56.865Z,68.93
2019-03-27T13:06:25.405Z,69.29
2019-03-27T13:08:53.992Z,68.62
2019-03-27T13:11:22.545Z,69.30
2019-03-27T13:13:51.117Z,69.02
2019-03-27T13:16:19.825Z,69.61
2019-03-27T13:18:48.401Z,68.21
2019-03-27T13:21:26.104Z,68.39
2019-03-27T13:23:47.767Z,69.64
2019-03-27T13:26:16.323Z,66.82
2019-03-27T13:28:49.108Z,66.53
2019-03-27T13:31:15.184Z,65.82
2019-03-27T13:33:43.765Z,66.08
2019-03-27T13:36:14.108Z,66.05
2019-03-27T13:38:42.668Z,66.29
2019-03-27T13:41:12.865Z,65.86
2019-03-27T13:43:41.441Z,65.20
2019-03-27T13:46:11.090Z,66.47
2019-03-27T13:48:39.647Z,65.99
2019-03-27T13:51:08.266Z,66.93
2019-03-27T13:53:36.843Z,67.00
2019-03-27T13:56:05.562Z,67.64
2019-03-27T13:58:34.129Z,68.23
2019-03-27T14:01:02.686Z,68.53
2019-03-27T14:03:31.268Z,68.48
2019-03-27T14:05:59.822Z,68.51
2019-03-27T14:08:28.822Z,69.81
2019-03-27T14:10:57.374Z,68.97
2019-03-27T14:13:25.952Z,69.48
2019-03-27T14:15:54.905Z,69.45
2019-03-27T14:18:23.808Z,69.10
2019-03-27T14:20:52.355Z,69.62
2019-03-27T14:23:20.911Z,70.41
2019-03-27T14:25:49.862Z,69.73
2019-03-27T14:28:18.774Z,70.93
2019-03-27T14:30:49.367Z,71.35
2019-03-27T14:33:18.258Z,71.28
2019-03-27T14:35:46.892Z,71.41
2019-03-27T14:38:15.437Z,71.12
2019-03-27T14:40:44.018Z,70.41
2019-03-27T14:43:15.655Z,70.71
2019-03-27T14:45:44.229Z,71.58
2019-03-27T14:48:12.785Z,70.92
2019-03-27T14:50:43.101Z,70.76
2019-03-27T14:53:11.809Z,71.31
2019-03-27T14:55:40.380Z,71.86
2019-03-27T14:58:09.284Z,72.04
2019-03-27T15:00:37.859Z,72.30
2019-03-27T15:03:06.558Z,72.18
2019-03-27T15:05:35.134Z,72.94
2019-03-27T15:08:04.394Z,72.84
2019-03-27T15:10:33.215Z,73.35
2019-03-27T15:13:02.235Z,73.67
2019-03-27T15:15:30.874Z,74.28
2019-03-27T15:17:59.423Z,74.91
2019-03-27T15:20:27.996Z,76.12
2019-03-27T15:22:56.592Z,76.58
2019-03-27T15:25:25.227Z,76.32
2019-03-27T15:27:53.782Z,77.01
2019-03-27T15:30:22.352Z,77.44
2019-03-27T15:32:50.898Z,78.11
2019-03-27T15:35:19.777Z,77.13
2019-03-27T15:37:48.469Z,78.03
2019-03-27T15:40:20.126Z,78.66
2019-03-27T15:42:48.703Z,78.71
2019-03-27T15:45:17.405Z,79.32
2019-03-27T15:47:46.291Z,78.87
2019-03-27T15:50:15.313Z,78.71
2019-03-27T15:52:44.003Z,79.42
2019-03-27T15:55:12.821Z,78.85
2019-03-27T15:57:41.484Z,78.41
2019-03-27T16:00:11.270Z,78.19
2019-03-27T16:02:39.827Z,78.02
2019-03-27T16:05:08.472Z,77.98
2019-03-27T16:07:37.047Z,77.70
2019-03-27T16:10:07.426Z,78.15
2019-03-27T16:12:36.674Z,78.04
2019-03-27T16:15:08.864Z,76.62
2019-03-27T16:17:37.420Z,76.68
2019-03-27T16:20:07.727Z,74.86
2019-03-27T16:22:50.013Z,75.13
2019-03-27T16:25:08.420Z,75.61
2019-03-27T16:27:36.991Z,76.12
2019-03-27T16:30:08.522Z,76.91
2019-03-27T16:32:37.106Z,76.62
2019-03-27T16:35:07.646Z,76.90
2019-03-27T16:37:36.191Z,77.23
2019-03-27T16:40:06.645Z,76.81
2019-03-27T16:42:35.220Z,77.54
2019-03-27T16:45:05.990Z,77.71
2019-03-27T16:47:34.596Z,77.80
2019-03-27T16:50:04.111Z,78.22
2019-03-27T16:52:32.690Z,78.29
2019-03-27T16:55:01.261Z,78.12
2019-03-27T16:57:29.959Z,78.97
2019-03-27T16:59:58.568Z,78.86
2019-03-27T17:02:27.149Z,79.16
2019-03-27T17:04:55.720Z,79.29
2019-03-27T17:07:24.292Z,80.26
2019-03-27T17:09:52.852Z,79.64
2019-03-27T17:12:21.460Z,79.75
2019-03-27T17:14:50.071Z,80.24
2019-03-27T17:17:18.647Z,80.00
2019-03-27T17:19:47.295Z,79.90
2019-03-27T17:22:19.646Z,79.96
2019-03-27T17:24:46.306Z,80.11
2019-03-27T17:27:14.987Z,80.70
2019-03-27T17:29:43.608Z,81.08
2019-03-27T17:32:13.876Z,80.98
2019-03-27T17:34:45.511Z,81.25
2019-03-27T17:37:14.390Z,81.41
2019-03-27T17:39:44.650Z,82.17
2019-03-27T17:42:16.235Z,83.21
2019-03-27T17:44:44.792Z,84.06
2019-03-27T17:47:13.372Z,84.99
2019-03-27T17:49:41.926Z,85.62
2019-03-27T17:52:12.276Z,85.43
2019-03-27T17:54:44.062Z,85.37
2019-03-27T17:57:15.496Z,85.47
2019-03-27T17:59:44.116Z,85.39
2019-03-27T18:02:15.607Z,85.21
2019-03-27T18:04:44.163Z,85.19
2019-03-27T18:07:12.762Z,84.83
2019-03-27T18:09:43.052Z,84.94
2019-03-27T18:12:11.682Z,85.09
2019-03-27T18:14:40.275Z,85.83
2019-03-27T18:17:08.980Z,85.80
2019-03-27T18:19:37.611Z,86.05
2019-03-27T18:22:08.047Z,86.27
2019-03-27T18:24:37.082Z,86.81
2019-03-27T18:27:05.794Z,86.05
2019-03-27T18:29:34.402Z,86.27
2019-03-27T18:32:03.012Z,86.34
2019-03-27T18:34:31.621Z,86.03
2019-03-27T18:37:00.350Z,85.64
2019-03-27T18:39:28.956Z,85.58
2019-03-27T18:41:57.563Z,85.14
2019-03-27T18:44:26.177Z,84.97
2019-03-27T18:46:54.781Z,85.00
2019-03-27T18:49:23.404Z,85.09
2019-03-27T18:51:52.017Z,85.03
2019-03-27T18:54:23.493Z,85.13
2019-03-27T18:56:50.913Z,84.17
2019-03-27T18:59:19.887Z,83.74
2019-03-27T19:01:48.977Z,83.36
2019-03-27T19:04:17.584Z,83.67
2019-03-27T19:06:46.144Z,83.25
2019-03-27T19:09:14.777Z,83.33
2019-03-27T19:11:46.801Z,83.73
2019-03-27T19:14:15.411Z,83.21
2019-03-27T19:16:44.028Z,82.83
2019-03-27T19:19:15.618Z,82.75
2019-03-27T19:21:44.218Z,82.66
2019-03-27T19:24:17.063Z,82.53
2019-03-27T19:26:48.318Z,82.78
2019-03-27T19:29:17.430Z,82.63
2019-03-27T19:31:46.450Z,82.59
2019-03-27T19:34:15.160Z,82.93
2019-03-27T19:36:43.769Z,82.66
2019-03-27T19:39:13.918Z,83.03
2019-03-27T19:41:45.826Z,83.77
2019-03-27T19:44:14.952Z,84.16
2019-03-27T19:46:43.974Z,84.86
2019-03-27T19:49:15.358Z,85.19
2019-03-27T19:51:43.915Z,85.30
2019-03-27T19:54:26.629Z,85.69
2019-03-27T19:56:45.711Z,85.35
2019-03-27T19:59:14.288Z,85.45
2019-03-27T20:01:44.466Z,85.33
2019-03-27T20:04:14.656Z,85.15
2019-03-27T20:06:46.201Z,85.26
2019-03-27T20:09:14.928Z,85.15
2019-03-27T20:11:43.614Z,84.86
2019-03-27T20:14:13.858Z,84.41
2019-03-27T20:16:42.717Z,84.18
2019-03-27T20:19:13.036Z,84.12
2019-03-27T20:21:41.685Z,84.11
2019-03-27T20:24:10.291Z,84.15
2019-03-27T20:26:38.909Z,83.93
2019-03-27T20:29:07.714Z,83.72
2019-03-27T20:31:36.333Z,83.47
2019-03-27T20:34:05.050Z,83.14
2019-03-27T20:36:33.631Z,83.15
2019-03-27T20:39:02.389Z,83.33
2019-03-27T20:41:31.012Z,82.68
2019-03-27T20:43:59.621Z,82.75
2019-03-27T20:46:29.412Z,83.25
2019-03-27T20:48:58.584Z,83.58
2019-03-27T20:51:27.201Z,83.71
2019-03-27T20:53:55.926Z,83.68
2019-03-27T20:56:24.541Z,84.11
2019-03-27T20:58:53.106Z,84.59
2019-03-27T21:01:21.795Z,85.33
2019-03-27T21:03:50.396Z,86.25
2019-03-27T21:06:18.969Z,86.96
2019-03-27T21:08:47.532Z,87.52
2019-03-27T21:11:16.220Z,88.86
2019-03-27T21:13:45.234Z,89.14
2019-03-27T21:16:13.846Z,89.87
2019-03-27T21:18:42.781Z,90.26
2019-03-27T21:21:11.596Z,90.78
2019-03-27T21:23:40.204Z,90.50
2019-03-27T21:26:09.712Z,90.45
2019-03-27T21:28:38.660Z,90.44
2019-03-27T21:31:07.267Z,90.66
2019-03-27T21:33:36.098Z,90.65
2019-03-27T21:36:04.812Z,90.47
2019-03-27T21:38:33.832Z,90.07
2019-03-27T21:41:02.442Z,90.42
2019-03-27T21:43:30.997Z,91.12
2019-03-27T21:45:59.585Z,92.02
2019-03-27T21:48:28.152Z,92.61
2019-03-27T21:50:56.802Z,92.99
2019-03-27T21:53:25.409Z,93.31
2019-03-27T21:55:54.027Z,93.97
2019-03-27T21:58:22.936Z,94.14
2019-03-27T22:00:51.524Z,94.40
2019-03-27T22:03:20.419Z,94.41
2019-03-27T22:05:49.348Z,94.48
2019-03-27T22:08:18.010Z,94.01
2019-03-27T22:10:46.720Z,94.06
2019-03-27T22:13:15.300Z,94.25
2019-03-27T22:15:43.855Z,94.14
2019-03-27T22:18:13.939Z,94.46
2019-03-27T22:20:45.699Z,94.63
2019-03-27T22:23:26.447Z,94.94
2019-03-27T22:26:00.874Z,95.08
2019-03-27T22:28:50.871Z,95.12
2019-03-27T22:31:22.918Z,95.26
2019-03-27T22:33:51.531Z,95.35
2019-03-27T22:36:20.116Z,95.35
2019-03-27T22:38:49.106Z,95.42
2019-03-27T22:41:17.700Z,95.35
2019-03-27T22:43:46.410Z,95.15
2019-03-27T22:46:15.122Z,95.13
2019-03-27T22:48:43.717Z,95.63
2019-03-27T22:51:13.798Z,95.63
2019-03-27T22:53:43.879Z,95.49
2019-03-27T22:56:13.948Z,95.81
2019-03-27T22:58:45.556Z,96.50
2019-03-27T23:01:14.251Z,96.93
2019-03-27T23:03:42.913Z,97.25
2019-03-27T23:06:11.471Z,97.67
2019-03-27T23:08:40.382Z,97.95
2019-03-27T23:11:08.938Z,98.27
2019-03-27T23:13:37.909Z,98.49
2019-03-27T23:16:06.679Z,98.59
2019-03-27T23:18:35.353Z,98.65
2019-03-27T23:21:04.088Z,98.75
2019-03-27T23:23:32.669Z,98.87
2019-03-27T23:26:03.178Z,99.09
2019-03-27T23:28:31.553Z,99.41
2019-03-27T23:31:00.122Z,99.60
2019-03-27T23:33:28.711Z,99.81
2019-03-27T23:35:57.354Z,100.00
2019-03-27T23:38:25.943Z,100.00
2019-03-27T23:40:54.500Z,100.00
2019-03-27T23:43:23.090Z,100.00
2019-03-27T23:45:51.648Z,100.00
2019-03-27T23:48:20.233Z,100.00
2019-03-27T23:50:48.797Z,100.00
2019-03-27T23:53:17.423Z,100.00
2019-03-27T23:55:46.060Z,100.00
2019-03-27T23:58:14.650Z,100.00
